Time;durP1;ratioP1;P1;durP2;ratioP2;P2;SDS_P1;SDS_P2;PMS_P1;PMS_P2;Temp;Humidity;BMP_temperature;BMP_pressure;BME280_temperature;BME280_humidity;BME280_pressure;Samples;Min_cycle;Max_cycle;Signal;HPM_P1;HPM_P2
2023/07/26 00:00:07;;;;;;;42.72;25.33;;;14.90;99.90;;;;;;6260986;28;20401;-83
2023/07/26 00:03:09;;;;;;;40.80;26.23;;;14.90;99.90;;;;;;6262693;28;20060;-81
2023/07/26 00:06:10;;;;;;;43.67;27.63;;;14.90;99.90;;;;;;6261348;28;20046;-82
2023/07/26 00:09:12;;;;;;;41.75;26.15;;;14.80;99.90;;;;;;6261192;28;20049;-81
2023/07/26 00:12:14;;;;;;;37.53;23.85;;;14.80;99.90;;;;;;6261250;28;20057;-82
2023/07/26 00:15:17;;;;;;;38.45;24.35;;;14.80;99.90;;;;;;6261380;28;20046;-81
2023/07/26 00:18:18;;;;;;;44.97;24.70;;;14.80;99.90;;;;;;6261385;28;20424;-82
2023/07/26 00:21:20;;;;;;;49.05;25.92;;;14.80;99.90;;;;;;6263810;28;20049;-82
2023/07/26 00:24:22;;;;;;;39.72;24.42;;;14.80;99.90;;;;;;6262993;28;20053;-81
2023/07/26 00:27:24;;;;;;;39.40;21.92;;;14.70;99.90;;;;;;6264945;28;20053;-80
2023/07/26 00:30:27;;;;;;;39.47;23.10;;;14.70;99.90;;;;;;6264981;28;20049;-81
2023/07/26 00:33:28;;;;;;;43.30;24.15;;;14.60;99.90;;;;;;6264218;28;20041;-81
2023/07/26 00:36:30;;;;;;;36.35;22.33;;;14.60;99.90;;;;;;6263219;28;20060;-81
2023/07/26 00:39:32;;;;;;;34.35;22.75;;;14.60;99.90;;;;;;6262830;28;20054;-82
2023/07/26 00:42:33;;;;;;;35.45;23.38;;;14.60;99.90;;;;;;6263992;28;20064;-81
2023/07/26 00:45:39;;;;;;;30.20;21.27;;;14.70;99.90;;;;;;6261448;28;20048;-81
2023/07/26 00:48:43;;;;;;;36.15;23.10;;;14.70;99.90;;;;;;6259071;28;20052;-82
2023/07/26 00:51:45;;;;;;;29.25;20.40;;;14.60;99.90;;;;;;6260548;28;20048;-82
2023/07/26 00:54:46;;;;;;;34.38;20.20;;;14.70;99.90;;;;;;6262094;28;20703;-81
2023/07/26 00:57:48;;;;;;;24.92;19.60;;;14.60;99.90;;;;;;6262331;28;20050;-82
2023/07/26 01:00:51;;;;;;;31.80;20.77;;;14.60;99.90;;;;;;6263118;28;20052;-82
2023/07/26 01:03:53;;;;;;;32.65;18.05;;;14.50;99.90;;;;;;6264647;28;20057;-81
2023/07/26 01:07:01;;;;;;;21.60;15.65;;;14.50;99.90;;;;;;6264629;28;20049;-82
2023/07/26 01:10:16;;;;;;;21.65;16.00;;;14.50;99.90;;;;;;6265997;28;20051;-83
2023/07/26 01:13:24;;;;;;;22.50;14.82;;;14.50;99.90;;;;;;6264742;28;20509;-83
2023/07/26 01:16:27;;;;;;;21.45;14.30;;;14.40;99.90;;;;;;6265350;28;20473;-82
2023/07/26 01:19:29;;;;;;;18.90;13.95;;;14.30;99.90;;;;;;6266577;28;20053;-81
2023/07/26 01:22:32;;;;;;;21.20;15.00;;;14.20;99.90;;;;;;6264569;28;20060;-80
2023/07/26 01:25:34;;;;;;;18.90;13.25;;;14.20;99.90;;;;;;6263928;28;20044;-82
2023/07/26 01:28:36;;;;;;;22.50;13.82;;;14.20;99.90;;;;;;6264507;28;20061;-82
2023/07/26 01:31:39;;;;;;;17.80;13.05;;;14.10;99.90;;;;;;6263225;28;20061;-82
2023/07/26 01:34:41;;;;;;;18.67;14.25;;;14.10;99.90;;;;;;6265714;28;20056;-81
2023/07/26 01:37:44;;;;;;;19.42;13.10;;;14.00;99.90;;;;;;6262806;28;20051;-82
2023/07/26 01:40:46;;;;;;;19.10;13.85;;;14.00;99.90;;;;;;6263974;28;20060;-82
2023/07/26 01:43:48;;;;;;;18.50;14.15;;;13.90;99.90;;;;;;6264043;28;20061;-83
2023/07/26 01:46:52;;;;;;;21.17;16.13;;;13.90;99.90;;;;;;6264310;28;20049;-81
2023/07/26 01:49:54;;;;;;;17.23;13.80;;;13.90;99.90;;;;;;6264887;28;20412;-82
2023/07/26 01:52:57;;;;;;;20.83;14.68;;;13.90;99.90;;;;;;6264798;28;20516;-81
2023/07/26 01:55:59;;;;;;;21.73;15.43;;;13.90;99.90;;;;;;6264421;28;20045;-82
2023/07/26 01:59:00;;;;;;;17.42;14.90;;;13.80;99.90;;;;;;6263628;28;20441;-81
2023/07/26 02:02:02;;;;;;;27.17;15.70;;;13.80;99.90;;;;;;6263081;28;20049;-82
2023/07/26 02:05:04;;;;;;;23.55;15.68;;;13.80;99.90;;;;;;6263177;28;20065;-81
2023/07/26 02:08:07;;;;;;;20.00;15.75;;;13.80;99.90;;;;;;6259670;28;20482;-81
2023/07/26 02:11:09;;;;;;;21.02;15.13;;;13.80;99.90;;;;;;6259976;28;20064;-81
2023/07/26 02:14:12;;;;;;;27.70;15.77;;;13.70;99.90;;;;;;6260348;28;20041;-81
2023/07/26 02:17:13;;;;;;;23.85;15.45;;;13.70;99.90;;;;;;6259069;28;20046;-81
2023/07/26 02:20:15;;;;;;;18.63;15.70;;;13.70;99.90;;;;;;6259852;28;20049;-82
2023/07/26 02:23:18;;;;;;;25.48;16.67;;;13.70;99.90;;;;;;6259120;28;20468;-81
2023/07/26 02:26:20;;;;;;;29.45;19.08;;;13.70;99.90;;;;;;6258099;28;20056;-81
2023/07/26 02:29:21;;;;;;;25.58;16.77;;;13.70;99.90;;;;;;6258960;28;20046;-81
2023/07/26 02:32:23;;;;;;;27.85;17.30;;;13.70;99.90;;;;;;6257763;28;20049;-81
2023/07/26 02:35:25;;;;;;;25.73;17.08;;;13.70;99.90;;;;;;6255454;28;20046;-81
2023/07/26 02:38:28;;;;;;;21.63;16.23;;;13.60;99.90;;;;;;6255625;28;20585;-82
2023/07/26 02:41:29;;;;;;;29.38;17.45;;;13.60;99.90;;;;;;6256837;28;20500;-81
2023/07/26 02:44:31;;;;;;;22.83;16.63;;;13.60;99.90;;;;;;6254545;28;20049;-81
2023/07/26 02:47:33;;;;;;;26.02;15.88;;;13.60;99.90;;;;;;6257955;28;20045;-81
2023/07/26 02:50:34;;;;;;;26.58;17.40;;;13.60;99.90;;;;;;6259768;28;20057;-82
2023/07/26 02:53:38;;;;;;;24.55;17.60;;;13.50;99.90;;;;;;6258053;28;20053;-82
2023/07/26 02:56:39;;;;;;;25.52;15.90;;;13.50;99.90;;;;;;6257293;28;20060;-81
2023/07/26 02:59:42;;;;;;;25.73;17.30;;;13.50;99.90;;;;;;6256446;28;20476;-82
2023/07/26 03:02:43;;;;;;;27.48;16.33;;;13.40;99.90;;;;;;6254819;28;20060;-80
2023/07/26 03:05:45;;;;;;;21.50;15.07;;;13.40;99.90;;;;;;6256800;28;20061;-81
2023/07/26 03:08:48;;;;;;;26.67;15.52;;;13.40;99.90;;;;;;6256239;28;20492;-80
2023/07/26 03:11:50;;;;;;;25.73;16.95;;;13.40;99.90;;;;;;6256197;28;20050;-81
2023/07/26 03:14:52;;;;;;;20.98;16.42;;;13.40;99.90;;;;;;6257047;28;20049;-80
2023/07/26 03:17:54;;;;;;;27.52;16.92;;;13.40;99.90;;;;;;6255905;28;20049;-80
2023/07/26 03:20:56;;;;;;;26.90;17.13;;;13.40;99.90;;;;;;6256440;28;20121;-81
2023/07/26 03:23:59;;;;;;;22.50;17.05;;;13.40;99.90;;;;;;6253375;28;20519;-81
2023/07/26 03:27:00;;;;;;;27.33;18.88;;;13.50;99.90;;;;;;6251079;28;20393;-81
2023/07/26 03:30:02;;;;;;;26.42;17.70;;;13.50;99.90;;;;;;6253640;28;20037;-81
2023/07/26 03:33:04;;;;;;;33.88;20.90;;;13.50;99.90;;;;;;6255132;28;20045;-80
2023/07/26 03:36:06;;;;;;;29.17;19.55;;;13.50;99.90;;;;;;6255994;28;20105;-81
2023/07/26 03:39:09;;;;;;;31.23;19.95;;;13.50;99.90;;;;;;6263559;28;20052;-79
2023/07/26 03:42:10;;;;;;;28.08;20.10;;;13.50;99.90;;;;;;6264160;28;20144;-79
2023/07/26 03:45:12;;;;;;;31.92;21.05;;;13.50;99.90;;;;;;6264329;28;20064;-79
2023/07/26 03:48:14;;;;;;;32.92;22.13;;;13.50;99.90;;;;;;6264409;28;20049;-79
2023/07/26 03:51:15;;;;;;;28.77;21.02;;;13.50;99.90;;;;;;6264302;28;20052;-80
2023/07/26 03:54:18;;;;;;;28.50;21.30;;;13.50;99.90;;;;;;6263347;28;20071;-80
2023/07/26 03:57:20;;;;;;;31.92;20.70;;;13.50;99.90;;;;;;6263183;28;20042;-80
2023/07/26 04:00:22;;;;;;;30.33;21.30;;;13.50;99.90;;;;;;6261373;28;20052;-80
2023/07/26 04:03:23;;;;;;;30.23;20.33;;;13.50;99.90;;;;;;6263014;28;20053;-78
2023/07/26 04:06:25;;;;;;;34.63;21.33;;;13.50;99.90;;;;;;6263663;28;20046;-79
2023/07/26 04:09:28;;;;;;;33.88;22.35;;;13.50;99.90;;;;;;6263208;28;20049;-79
2023/07/26 04:12:30;;;;;;;31.35;21.70;;;13.50;99.90;;;;;;6261994;28;20060;-80
2023/07/26 04:15:32;;;;;;;34.03;21.85;;;13.60;99.90;;;;;;6260819;28;20057;-79
2023/07/26 04:18:33;;;;;;;32.72;21.25;;;13.60;99.90;;;;;;6259621;28;20049;-79
2023/07/26 04:21:35;;;;;;;27.55;20.13;;;13.60;99.90;;;;;;6259598;28;20049;-80
2023/07/26 04:24:42;;;;;;;31.10;21.30;;;13.60;99.90;;;;;;6259738;28;20050;-80
2023/07/26 04:27:44;;;;;;;27.30;19.55;;;13.70;99.90;;;;;;6260362;28;20061;-80
2023/07/26 04:30:47;;;;;;;31.85;23.90;;;13.70;99.90;;;;;;6261972;28;20053;-81
2023/07/26 04:33:48;;;;;;;26.25;21.38;;;13.70;99.90;;;;;;6260581;28;20053;-80
2023/07/26 04:36:50;;;;;;;26.00;19.05;;;13.70;99.90;;;;;;6260031;28;20056;-80
2023/07/26 04:39:53;;;;;;;30.17;20.42;;;13.70;99.90;;;;;;6260588;28;20064;-80
2023/07/26 04:42:55;;;;;;;30.65;21.05;;;13.70;99.90;;;;;;6260137;28;20060;-81
2023/07/26 04:45:56;;;;;;;27.65;19.02;;;13.80;99.90;;;;;;6260283;28;20041;-81
2023/07/26 04:48:58;;;;;;;28.30;19.17;;;13.80;99.90;;;;;;6261054;28;20049;-80
2023/07/26 04:52:00;;;;;;;29.50;18.85;;;13.90;99.90;;;;;;6261727;28;20049;-80
2023/07/26 04:55:04;;;;;;;24.23;19.25;;;13.90;99.90;;;;;;6260814;28;20053;-80
2023/07/26 04:58:06;;;;;;;22.25;16.77;;;13.90;99.90;;;;;;6260798;28;20046;-81
2023/07/26 05:01:07;;;;;;;20.33;17.25;;;13.90;99.90;;;;;;6261901;28;20132;-81
2023/07/26 05:04:10;;;;;;;21.77;16.33;;;14.00;99.90;;;;;;6261621;28;20041;-80
2023/07/26 05:07:11;;;;;;;20.55;15.88;;;14.00;99.90;;;;;;6260185;28;20045;-80
2023/07/26 05:10:15;;;;;;;22.42;17.70;;;14.00;99.90;;;;;;6261325;28;20116;-80
2023/07/26 05:13:20;;;;;;;18.00;15.93;;;14.00;99.90;;;;;;6263694;28;20045;-81
2023/07/26 05:16:25;;;;;;;20.33;14.95;;;14.20;99.90;;;;;;6253819;28;20515;-81
2023/07/26 05:19:31;;;;;;;20.80;15.63;;;14.10;99.90;;;;;;6252529;28;20054;-80
2023/07/26 05:22:33;;;;;;;19.55;15.45;;;14.10;99.90;;;;;;6251059;28;20192;-81
2023/07/26 05:25:38;;;;;;;17.63;15.73;;;14.20;99.90;;;;;;6251044;28;20052;-80
2023/07/26 05:28:40;;;;;;;22.92;17.38;;;14.20;99.90;;;;;;6249834;28;20046;-79
2023/07/26 05:31:42;;;;;;;22.00;16.70;;;14.20;99.90;;;;;;6251290;28;20053;-80
2023/07/26 05:34:43;;;;;;;16.98;14.70;;;14.30;99.90;;;;;;6252681;28;20060;-80
2023/07/26 05:37:45;;;;;;;13.73;12.35;;;14.30;99.90;;;;;;6259576;28;20038;-80
2023/07/26 05:40:48;;;;;;;21.95;12.80;;;14.30;99.90;;;;;;6257470;28;20050;-81
2023/07/26 05:43:57;;;;;;;16.20;14.18;;;14.40;99.90;;;;;;6249180;28;20064;-81
2023/07/26 05:46:59;;;;;;;20.70;13.93;;;14.40;99.90;;;;;;6256952;28;20529;-79
2023/07/26 05:50:01;;;;;;;13.63;12.27;;;14.50;99.90;;;;;;6251791;28;20079;-80
2023/07/26 05:53:02;;;;;;;17.13;12.60;;;14.60;99.90;;;;;;6250611;28;20508;-80
2023/07/26 05:56:05;;;;;;;12.68;11.43;;;14.70;99.90;;;;;;6253461;28;20050;-79
2023/07/26 05:59:07;;;;;;;13.88;12.10;;;14.80;99.90;;;;;;6255443;28;20057;-80
2023/07/26 06:02:09;;;;;;;13.80;12.40;;;14.80;99.90;;;;;;6258417;28;20046;-78
2023/07/26 06:05:10;;;;;;;13.35;11.30;;;14.80;99.90;;;;;;6257918;28;20057;-79
2023/07/26 06:08:14;;;;;;;18.95;11.63;;;14.80;99.90;;;;;;6258957;28;20048;-79
2023/07/26 06:11:17;;;;;;;11.85;10.35;;;14.80;99.90;;;;;;6260563;28;20045;-79
2023/07/26 06:14:19;;;;;;;12.35;10.63;;;14.90;99.90;;;;;;6261356;28;20045;-79
2023/07/26 06:17:20;;;;;;;12.02;10.55;;;14.90;99.90;;;;;;6259804;28;20535;-79
2023/07/26 06:20:22;;;;;;;13.13;10.73;;;14.90;99.90;;;;;;6260729;28;20046;-79
2023/07/26 06:23:24;;;;;;;12.32;9.98;;;14.90;99.90;;;;;;6260822;28;20055;-80
2023/07/26 06:26:27;;;;;;;10.00;9.02;;;14.90;99.90;;;;;;6260602;28;20060;-79
2023/07/26 06:29:29;;;;;;;10.82;9.65;;;14.90;99.90;;;;;;6259365;28;20060;-78
2023/07/26 06:32:30;;;;;;;12.75;10.13;;;14.90;99.90;;;;;;6229420;28;20705;-79
2023/07/26 06:35:32;;;;;;;11.80;10.48;;;15.00;99.90;;;;;;6252014;28;20060;-77
2023/07/26 06:38:34;;;;;;;18.08;10.32;;;15.00;99.90;;;;;;6254907;28;20050;-78
2023/07/26 06:41:37;;;;;;;9.93;9.13;;;15.00;99.90;;;;;;6257632;28;20041;-78
2023/07/26 06:44:40;;;;;;;10.88;9.77;;;15.00;99.90;;;;;;6260773;28;20076;-79
2023/07/26 06:47:41;;;;;;;10.63;9.57;;;15.10;99.90;;;;;;6261345;28;20084;-77
2023/07/26 06:50:43;;;;;;;10.30;9.30;;;15.10;99.90;;;;;;6264164;28;20060;-79
2023/07/26 06:53:45;;;;;;;10.23;9.25;;;15.10;99.90;;;;;;6262721;28;20056;-79
2023/07/26 06:56:48;;;;;;;17.05;9.90;;;15.10;99.90;;;;;;6264674;28;20061;-79
2023/07/26 06:59:50;;;;;;;10.65;9.02;;;15.20;99.90;;;;;;6264084;28;20061;-79
2023/07/26 07:02:56;;;;;;;14.85;8.35;;;15.10;99.90;;;;;;6263303;28;20054;-78
2023/07/26 07:05:57;;;;;;;12.50;9.65;;;15.20;99.90;;;;;;6261011;28;20049;-79
2023/07/26 07:08:59;;;;;;;9.48;8.63;;;15.20;99.90;;;;;;6261109;28;20060;-80
2023/07/26 07:12:02;;;;;;;9.60;8.80;;;15.30;99.90;;;;;;6261700;28;20056;-78
2023/07/26 07:15:04;;;;;;;11.65;9.43;;;15.30;99.90;;;;;;6263077;28;20056;-78
2023/07/26 07:18:06;;;;;;;12.13;9.38;;;15.30;99.90;;;;;;6260452;28;20048;-79
2023/07/26 07:21:08;;;;;;;10.07;9.05;;;15.40;99.90;;;;;;6259676;28;20050;-78
2023/07/26 07:24:09;;;;;;;11.48;10.10;;;15.40;99.90;;;;;;6260189;28;20049;-79
2023/07/26 07:27:12;;;;;;;11.07;8.90;;;15.60;99.90;;;;;;6258718;28;20041;-78
2023/07/26 07:30:14;;;;;;;15.70;10.95;;;15.70;99.90;;;;;;6258339;28;20180;-79
2023/07/26 07:33:16;;;;;;;15.70;10.45;;;15.60;99.90;;;;;;6260006;28;20053;-80
2023/07/26 07:36:19;;;;;;;12.57;9.90;;;15.40;99.90;;;;;;6250567;28;20050;-79
2023/07/26 07:39:20;;;;;;;21.52;12.30;;;15.30;99.90;;;;;;6235356;28;20107;-79
2023/07/26 07:42:24;;;;;;;16.38;9.85;;;15.00;99.90;;;;;;6236088;28;20050;-79
2023/07/26 07:45:25;;;;;;;13.27;10.05;;;14.90;99.90;;;;;;6235289;28;20108;-81
2023/07/26 07:48:27;;;;;;;13.18;10.05;;;14.70;99.90;;;;;;6231946;28;20049;-79
2023/07/26 07:51:29;;;;;;;13.15;10.05;;;14.60;99.90;;;;;;6229155;28;20432;-80
2023/07/26 07:54:30;;;;;;;13.40;10.93;;;14.60;99.90;;;;;;6225987;28;20061;-78
2023/07/26 07:57:33;;;;;;;13.27;11.43;;;14.70;99.90;;;;;;6227537;28;20050;-80
2023/07/26 08:00:35;;;;;;;14.88;12.70;;;14.80;99.90;;;;;;6226999;28;20053;-79
2023/07/26 08:03:37;;;;;;;15.82;14.25;;;14.80;99.90;;;;;;6227457;28;20501;-78
2023/07/26 08:06:38;;;;;;;16.77;13.77;;;14.90;99.90;;;;;;6228717;28;20050;-79
2023/07/26 08:09:42;;;;;;;17.52;13.90;;;14.90;99.90;;;;;;6233143;28;20057;-79
2023/07/26 08:12:45;;;;;;;18.92;15.10;;;14.90;99.90;;;;;;6230022;28;20045;-80
2023/07/26 08:15:47;;;;;;;15.85;14.10;;;15.00;99.90;;;;;;6233147;28;20045;-81
2023/07/26 08:18:48;;;;;;;20.38;14.68;;;15.10;99.90;;;;;;6232912;28;20046;-80
2023/07/26 08:21:50;;;;;;;15.13;13.55;;;15.20;99.90;;;;;;6235880;28;20065;-79
2023/07/26 08:24:53;;;;;;;20.38;14.10;;;15.30;99.90;;;;;;6237698;28;20049;-78
2023/07/26 08:27:56;;;;;;;16.27;12.45;;;15.30;99.90;;;;;;6234270;28;20045;-78
2023/07/26 08:30:58;;;;;;;14.93;12.82;;;15.30;99.90;;;;;;6233423;28;20145;-78
2023/07/26 08:34:00;;;;;;;28.02;14.50;;;15.30;99.90;;;;;;6256052;28;20204;-80
2023/07/26 08:37:01;;;;;;;14.23;12.73;;;15.40;99.90;;;;;;6258620;28;20055;-81
2023/07/26 08:40:04;;;;;;;13.45;12.07;;;15.40;99.90;;;;;;6259223;28;20060;-79
2023/07/26 08:43:07;;;;;;;13.10;11.73;;;15.50;99.90;;;;;;6259805;28;20104;-80
2023/07/26 08:46:10;;;;;;;16.13;13.82;;;15.70;99.90;;;;;;6250794;28;20050;-78
2023/07/26 08:49:13;;;;;;;15.35;13.95;;;16.00;99.90;;;;;;6254242;28;20054;-83
2023/07/26 08:52:15;;;;;;;13.60;12.35;;;16.50;99.90;;;;;;6254377;28;20057;-80
2023/07/26 08:55:18;;;;;;;14.23;11.02;;;17.10;99.90;;;;;;6255990;28;20046;-80
2023/07/26 08:58:21;;;;;;;10.10;8.90;;;17.60;99.90;;;;;;6270058;28;20051;-79
2023/07/26 09:01:23;;;;;;;9.60;8.68;;;18.10;99.90;;;;;;6253013;28;20057;-78
2023/07/26 09:04:25;;;;;;;11.00;9.90;;;18.20;99.90;;;;;;6255083;28;20049;-81
2023/07/26 09:07:27;;;;;;;5.90;5.18;;;18.10;99.90;;;;;;6255997;28;20049;-80
2023/07/26 09:10:30;;;;;;;7.38;5.07;;;18.10;99.90;;;;;;6256249;28;20059;-81
2023/07/26 09:13:33;;;;;;;5.88;5.28;;;18.10;99.90;;;;;;6256702;28;20042;-81
2023/07/26 09:16:35;;;;;;;5.13;4.63;;;18.30;99.90;;;;;;6254952;28;20041;-81
2023/07/26 09:19:39;;;;;;;6.32;5.43;;;18.40;99.90;;;;;;6253713;28;20045;-80
2023/07/26 09:22:41;;;;;;;11.30;5.38;;;18.50;99.90;;;;;;6255519;28;20095;-80
2023/07/26 09:25:45;;;;;;;8.70;4.82;;;18.20;99.90;;;;;;6254615;28;20057;-81
2023/07/26 09:28:53;;;;;;;6.35;4.70;;;18.10;99.90;;;;;;6255768;28;20080;-80
2023/07/26 09:31:55;;;;;;;7.00;5.32;;;18.00;99.90;;;;;;6256545;28;20124;-80
2023/07/26 09:34:59;;;;;;;4.93;4.13;;;17.90;99.90;;;;;;6256625;28;20053;-81
2023/07/26 09:38:10;;;;;;;6.43;5.53;;;17.80;99.90;;;;;;6255277;28;20068;-82
2023/07/26 09:41:22;;;;;;;5.82;5.22;;;17.70;99.90;;;;;;6255985;28;20049;-82
2023/07/26 09:44:25;;;;;;;9.15;4.65;;;17.70;99.90;;;;;;6256456;28;20056;-80
2023/07/26 09:47:36;;;;;;;7.13;3.63;;;17.90;99.90;;;;;;6254949;28;20069;-82
2023/07/26 09:50:38;;;;;;;6.82;3.33;;;18.10;99.90;;;;;;6256869;28;20045;-80
2023/07/26 09:53:41;;;;;;;5.07;3.85;;;18.20;99.90;;;;;;6255391;28;20101;-80
2023/07/26 09:56:43;;;;;;;4.82;3.13;;;18.30;99.90;;;;;;6253908;28;20045;-80
2023/07/26 09:59:48;;;;;;;3.67;3.38;;;18.50;99.90;;;;;;6254293;28;20067;-80
2023/07/26 10:02:56;;;;;;;5.75;3.83;;;18.70;99.90;;;;;;6255342;28;20057;-80
2023/07/26 10:05:58;;;;;;;6.30;3.70;;;18.80;99.90;;;;;;6254958;28;20057;-81
2023/07/26 10:09:01;;;;;;;6.22;3.65;;;19.00;99.90;;;;;;6253790;28;20052;-82
2023/07/26 10:12:03;;;;;;;3.92;3.50;;;19.30;99.90;;;;;;6253378;28;20053;-82
2023/07/26 10:15:10;;;;;;;5.75;3.45;;;19.50;99.90;;;;;;6253693;28;20056;-82
2023/07/26 10:18:12;;;;;;;5.63;3.47;;;19.80;99.90;;;;;;6254125;28;20153;-80
2023/07/26 10:21:16;;;;;;;3.60;3.30;;;20.10;99.90;;;;;;6254175;28;20046;-82
2023/07/26 10:24:20;;;;;;;6.70;3.80;;;20.00;99.90;;;;;;6254417;28;20045;-81
2023/07/26 10:27:22;;;;;;;4.15;2.60;;;19.90;99.90;;;;;;6254088;28;20049;-80
2023/07/26 10:30:25;;;;;;;4.72;2.85;;;19.90;99.90;;;;;;6255420;28;20125;-82
2023/07/26 10:33:27;;;;;;;5.50;2.53;;;20.00;99.90;;;;;;6253831;28;20045;-80
2023/07/26 10:36:30;;;;;;;4.20;2.38;;;19.80;99.90;;;;;;6254712;28;20049;-81
2023/07/26 10:39:34;;;;;;;3.42;3.05;;;20.10;99.90;;;;;;6253294;28;21057;-80
2023/07/26 10:42:36;;;;;;;3.90;2.63;;;20.40;99.90;;;;;;6256354;28;20130;-78
2023/07/26 10:45:42;;;;;;;3.33;2.83;;;20.90;99.90;;;;;;6257727;28;20049;-79
2023/07/26 10:48:44;;;;;;;2.08;1.90;;;21.30;99.90;;;;;;6258716;28;20049;-80
2023/07/26 10:51:56;;;;;;;4.57;2.85;;;21.70;99.90;;;;;;6257266;28;20045;-80
2023/07/26 10:54:58;;;;;;;3.42;2.22;;;22.20;99.90;;;;;;6258546;28;20053;-81
2023/07/26 10:58:00;;;;;;;3.22;2.35;;;22.40;99.90;;;;;;6243788;28;20401;-80
2023/07/26 11:01:04;;;;;;;4.00;2.25;;;22.50;99.90;;;;;;6251111;28;20052;-80
2023/07/26 11:04:12;;;;;;;3.67;2.33;;;22.50;99.90;;;;;;6255657;28;20056;-79
2023/07/26 11:07:14;;;;;;;8.60;3.75;;;22.50;99.90;;;;;;6253910;28;20054;-82
2023/07/26 11:10:20;;;;;;;2.40;2.20;;;22.40;99.90;;;;;;6257509;28;20076;-81
2023/07/26 11:13:29;;;;;;;3.33;3.03;;;22.40;99.90;;;;;;6231776;28;20050;-81
2023/07/26 11:16:33;;;;;;;4.70;2.88;;;22.00;99.90;;;;;;6242723;28;20455;-81
2023/07/26 11:19:45;;;;;;;7.60;3.10;;;21.40;99.90;;;;;;6255682;28;20138;-82
2023/07/26 11:22:47;;;;;;;6.53;3.00;;;20.90;99.90;;;;;;6257038;28;20083;-80
2023/07/26 11:25:51;;;;;;;6.30;2.72;;;20.60;99.90;;;;;;6257555;28;20092;-81
2023/07/26 11:28:52;;;;;;;4.10;2.88;;;20.50;99.90;;;;;;6256130;28;20419;-81
2023/07/26 11:31:55;;;;;;;4.53;3.67;;;20.40;99.90;;;;;;6257607;28;20049;-81
2023/07/26 11:34:58;;;;;;;2.55;2.13;;;20.70;99.90;;;;;;6255892;28;20053;-81
2023/07/26 11:37:59;;;;;;;4.43;2.75;;;21.00;99.90;;;;;;6256456;28;20052;-81
2023/07/26 11:41:01;;;;;;;3.47;2.00;;;21.20;99.90;;;;;;6258358;28;20056;-82
2023/07/26 11:44:03;;;;;;;5.82;2.58;;;21.60;99.90;;;;;;6243544;28;20073;-82
2023/07/26 11:47:08;;;;;;;4.20;2.83;;;21.90;99.90;;;;;;6252319;28;20055;-82
2023/07/26 11:50:10;;;;;;;3.78;3.00;;;21.90;99.90;;;;;;6234955;28;20039;-85
2023/07/26 11:53:14;;;;;;;4.32;2.40;;;21.90;99.90;;;;;;6258532;28;20053;-84
2023/07/26 11:56:16;;;;;;;4.90;2.60;;;21.70;99.90;;;;;;6260672;28;20045;-85
2023/07/26 11:59:18;;;;;;;5.72;2.70;;;21.50;99.90;;;;;;6259288;28;20053;-83
2023/07/26 12:02:22;;;;;;;3.38;2.90;;;21.30;99.90;;;;;;6256643;28;20052;-84
2023/07/26 12:05:25;;;;;;;3.70;2.50;;;21.20;99.90;;;;;;6252512;28;20048;-84
2023/07/26 12:08:29;;;;;;;5.32;2.90;;;20.90;99.90;;;;;;6252978;28;20041;-84
2023/07/26 12:11:31;;;;;;;6.20;2.90;;;20.80;99.90;;;;;;6256512;28;20576;-83
2023/07/26 12:14:33;;;;;;;4.38;2.50;;;20.60;99.90;;;;;;6257590;28;20053;-83
2023/07/26 12:17:36;;;;;;;6.88;2.63;;;20.50;99.90;;;;;;6255955;28;20072;-84
2023/07/26 12:20:54;;;;;;;4.43;2.63;;;20.60;99.90;;;;;;6259516;28;20547;-82
2023/07/26 12:23:57;;;;;;;4.60;3.03;;;20.90;99.90;;;;;;6256591;28;20045;-86
2023/07/26 12:27:00;;;;;;;4.45;2.55;;;21.20;99.90;;;;;;6257560;28;20523;-82
2023/07/26 12:30:02;;;;;;;2.50;1.85;;;21.40;99.90;;;;;;6259164;28;20128;-83
2023/07/26 12:33:13;;;;;;;3.13;2.22;;;21.70;99.90;;;;;;6260273;28;20064;-84
2023/07/26 12:36:15;;;;;;;3.65;2.25;;;21.50;99.90;;;;;;6254513;28;20068;-82
2023/07/26 12:39:18;;;;;;;3.47;2.28;;;21.60;99.90;;;;;;6256023;28;20053;-84
2023/07/26 12:42:20;;;;;;;3.08;2.55;;;21.80;99.90;;;;;;6257943;28;20508;-83
2023/07/26 12:45:22;;;;;;;3.10;2.83;;;22.00;99.90;;;;;;6255714;28;20539;-84
2023/07/26 12:48:26;;;;;;;3.17;2.22;;;22.20;99.90;;;;;;6257447;28;20045;-85
2023/07/26 12:51:28;;;;;;;6.35;3.08;;;22.40;99.90;;;;;;6255871;28;20064;-83
2023/07/26 12:54:30;;;;;;;2.70;2.50;;;22.70;99.90;;;;;;6256986;28;20049;-84
2023/07/26 12:57:32;;;;;;;6.97;3.17;;;22.80;99.90;;;;;;6255364;28;20053;-84
2023/07/26 13:00:34;;;;;;;3.63;2.65;;;22.90;99.90;;;;;;6255067;28;20061;-83
2023/07/26 13:03:37;;;;;;;3.83;2.35;;;22.90;99.90;;;;;;6255951;28;20522;-83
2023/07/26 13:06:39;;;;;;;3.55;2.53;;;22.80;99.90;;;;;;6252382;28;20515;-85
2023/07/26 13:09:40;;;;;;;3.80;3.17;;;22.90;99.90;;;;;;6248867;28;20152;-82
2023/07/26 13:12:42;;;;;;;3.42;2.67;;;23.10;99.90;;;;;;6250933;28;20049;-83
2023/07/26 13:15:44;;;;;;;5.43;2.55;;;23.10;99.90;;;;;;6250294;28;20052;-82
2023/07/26 13:18:47;;;;;;;2.95;2.63;;;23.20;99.90;;;;;;6251221;28;20481;-82
2023/07/26 13:21:48;;;;;;;6.53;2.90;;;23.30;99.90;;;;;;6255342;28;20049;-81
2023/07/26 13:24:50;;;;;;;4.53;3.20;;;23.20;99.90;;;;;;6254836;28;20615;-84
2023/07/26 13:27:52;;;;;;;4.25;2.78;;;23.10;99.90;;;;;;6258036;28;20512;-83
2023/07/26 13:30:54;;;;;;;6.05;2.40;;;23.00;99.90;;;;;;6250531;28;20076;-80
2023/07/26 13:33:57;;;;;;;2.88;2.50;;;23.20;99.90;;;;;;6257641;28;20061;-85
2023/07/26 13:40:57;;;;;;;3.75;2.95;;;23.40;99.90;;;;;;6259983;28;20427;-84
2023/07/26 13:43:59;;;;;;;4.93;2.67;;;23.40;99.90;;;;;;6254762;28;20413;-81
2023/07/26 13:47:01;;;;;;;4.72;2.95;;;23.00;99.90;;;;;;6253544;28;20053;-84
2023/07/26 13:50:04;;;;;;;5.32;3.63;;;22.80;99.90;;;;;;6258841;28;20049;-83
2023/07/26 13:53:06;;;;;;;5.13;3.95;;;22.90;99.90;;;;;;6259658;28;20045;-83
2023/07/26 13:56:09;;;;;;;6.20;3.92;;;23.10;99.90;;;;;;6252547;28;20053;-82
2023/07/26 13:59:10;;;;;;;3.30;2.35;;;23.10;99.90;;;;;;6264406;28;20054;-84
2023/07/26 14:02:12;;;;;;;7.25;3.05;;;23.00;99.90;;;;;;6234497;28;20056;-82
2023/07/26 14:05:16;;;;;;;4.28;2.65;;;22.50;99.90;;;;;;6245525;28;20131;-84
2023/07/26 14:08:17;;;;;;;5.20;2.83;;;22.10;99.90;;;;;;6255913;28;20056;-81
2023/07/26 14:11:19;;;;;;;4.03;3.25;;;21.70;99.90;;;;;;6255125;28;20060;-83
2023/07/26 14:14:21;;;;;;;3.45;2.70;;;21.50;99.90;;;;;;6258340;28;20442;-82
2023/07/26 14:17:23;;;;;;;6.95;3.33;;;21.50;99.90;;;;;;6258553;28;20053;-81
2023/07/26 14:20:58;;;;;;;4.95;2.00;;;21.60;99.90;;;;;;6257486;28;20069;-85
2023/07/26 14:24:00;;;;;;;1.77;1.67;;;21.70;99.90;;;;;;6245544;28;20050;-83
2023/07/26 14:27:01;;;;;;;2.03;1.63;;;21.60;99.90;;;;;;6249403;28;20056;-83
2023/07/26 14:30:04;;;;;;;1.70;1.45;;;21.80;99.90;;;;;;6248209;28;20497;-83
2023/07/26 14:33:06;;;;;;;3.40;1.73;;;21.90;99.90;;;;;;6237500;28;20053;-83
2023/07/26 14:36:09;;;;;;;1.63;1.52;;;22.00;99.90;;;;;;6231527;28;20052;-82
2023/07/26 14:39:10;;;;;;;2.58;1.35;;;21.90;99.90;;;;;;6229780;28;20057;-85
2023/07/26 14:42:12;;;;;;;3.65;1.67;;;22.00;99.90;;;;;;6254975;28;20060;-85
2023/07/26 14:45:14;;;;;;;3.17;1.70;;;22.20;99.90;;;;;;6252237;28;20111;-83
2023/07/26 14:48:16;;;;;;;3.25;1.70;;;22.40;99.90;;;;;;6251591;28;20049;-83
2023/07/26 14:51:19;;;;;;;1.73;1.25;;;22.50;99.90;;;;;;6249476;28;20045;-84
2023/07/26 14:54:20;;;;;;;3.22;2.47;;;22.60;99.90;;;;;;6255152;28;20049;-81
2023/07/26 14:57:22;;;;;;;3.38;3.08;;;23.00;99.90;;;;;;6253098;28;20053;-83
2023/07/26 15:00:24;;;;;;;2.80;1.88;;;23.00;99.90;;;;;;6247872;28;20056;-82
2023/07/26 15:03:27;;;;;;;3.63;2.08;;;23.30;99.90;;;;;;6257895;28;20053;-81
2023/07/26 15:06:30;;;;;;;4.80;2.10;;;23.20;99.90;;;;;;6252160;28;20506;-83
2023/07/26 15:09:32;;;;;;;1.98;1.67;;;23.30;99.90;;;;;;6255784;28;20037;-81
2023/07/26 15:12:34;;;;;;;3.38;1.55;;;23.30;99.90;;;;;;6252649;28;20536;-80
2023/07/26 15:15:35;;;;;;;2.95;1.50;;;23.30;99.90;;;;;;6250730;28;20052;-82
2023/07/26 15:18:37;;;;;;;1.65;1.50;;;23.40;99.90;;;;;;6250740;28;20064;-82
2023/07/26 15:21:40;;;;;;;1.55;1.30;;;23.20;99.20;;;;;;6250645;28;20042;-83
2023/07/26 15:24:42;;;;;;;2.53;1.60;;;23.30;99.90;;;;;;6252166;28;20052;-83
2023/07/26 15:27:44;;;;;;;4.93;1.70;;;23.30;99.80;;;;;;6254818;28;20045;-82
2023/07/26 15:30:45;;;;;;;4.68;1.58;;;23.00;98.10;;;;;;6254014;28;20046;-82
2023/07/26 15:33:47;;;;;;;2.85;2.30;;;22.90;99.20;;;;;;6255779;28;20582;-83
2023/07/26 15:36:50;;;;;;;6.70;2.13;;;23.00;98.50;;;;;;6256143;28;20536;-81
2023/07/26 15:39:52;;;;;;;1.83;1.30;;;23.10;97.30;;;;;;6265054;28;20518;-82